createdAt,value
2022-10-22T00:00:16.318Z,71.228000
2022-10-22T00:05:19.378Z,70.700000
2022-10-22T00:10:22.070Z,70.196000
2022-10-22T00:15:24.869Z,69.684286
2022-10-22T00:20:28.059Z,69.092000
2022-10-22T00:25:32.074Z,68.300000
2022-10-22T00:30:32.566Z,67.448000
2022-10-22T00:35:17.627Z,66.692000
2022-10-22T00:40:17.894Z,66.128000
2022-10-22T00:45:20.148Z,65.156000
2022-10-22T00:50:22.546Z,64.438571
2022-10-22T00:55:25.786Z,63.860000
2022-10-22T01:00:29.611Z,64.052000
2022-10-22T01:05:31.913Z,63.872000
2022-10-22T01:10:33.979Z,63.500000
2022-10-22T01:15:16.561Z,62.876000
2022-10-22T01:20:19.119Z,62.540000
2022-10-22T01:25:21.900Z,61.940000
2022-10-22T01:30:24.129Z,61.455714
2022-10-22T01:35:28.215Z,61.364000
2022-10-22T01:40:29.908Z,60.728000
2022-10-22T01:45:33.175Z,60.116000
2022-10-22T01:50:35.638Z,59.780000
2022-10-22T01:55:18.304Z,59.036000
2022-10-22T02:00:21.936Z,58.724000
2022-10-22T02:05:24.144Z,58.280000
2022-10-22T02:10:26.105Z,57.980000
2022-10-22T02:15:28.067Z,57.860000
2022-10-22T02:20:30.427Z,57.476000
2022-10-22T02:25:33.821Z,57.380000
2022-10-22T02:30:35.593Z,57.344000
2022-10-22T02:35:17.738Z,57.380000
2022-10-22T02:40:20.373Z,57.248000
2022-10-22T02:45:23.278Z,57.200000
2022-10-22T02:50:25.668Z,57.200000
2022-10-22T02:55:29.244Z,57.308000
2022-10-22T03:00:30.366Z,57.068000
2022-10-22T03:05:33.989Z,56.864000
2022-10-22T03:10:35.080Z,56.936000
2022-10-22T03:15:17.650Z,56.744000
2022-10-22T03:20:20.145Z,56.708000
2022-10-22T03:25:23.388Z,56.685714
2022-10-22T03:30:24.882Z,56.576000
2022-10-22T03:35:27.469Z,56.588000
2022-10-22T03:40:30.962Z,56.252000
2022-10-22T03:45:33.641Z,55.952000
2022-10-22T03:50:15.967Z,56.012000
2022-10-22T03:55:19.282Z,56.228000
2022-10-22T04:00:21.849Z,55.748000
2022-10-22T04:05:25.671Z,56.158571
2022-10-22T04:10:27.210Z,57.212000
2022-10-22T04:15:30.076Z,57.680000
2022-10-22T04:20:32.647Z,58.256000
2022-10-22T04:25:35.340Z,57.836000
2022-10-22T04:30:18.709Z,57.416000
2022-10-22T04:35:21.080Z,57.632000
2022-10-22T04:40:23.354Z,57.212857
2022-10-22T04:45:25.324Z,56.924000
2022-10-22T04:50:28.962Z,57.428000
2022-10-22T04:55:36.842Z,57.560000
2022-10-22T05:00:32.329Z,57.416000
2022-10-22T05:05:35.566Z,57.200000
2022-10-22T05:10:16.613Z,57.116000
2022-10-22T05:15:18.856Z,57.080000
2022-10-22T05:20:21.228Z,57.008000
2022-10-22T05:25:23.375Z,56.891429
2022-10-22T05:30:25.628Z,57.056000
2022-10-22T05:35:28.441Z,55.040000
2022-10-22T05:40:31.489Z,53.984000
2022-10-22T05:45:33.721Z,53.372000
2022-10-22T05:50:35.819Z,52.520000
2022-10-22T05:55:18.670Z,52.988000
2022-10-22T06:00:20.976Z,53.588000
2022-10-22T06:05:23.664Z,53.535714
2022-10-22T06:10:25.578Z,54.068000
2022-10-22T06:15:27.675Z,54.380000
2022-10-22T06:20:29.853Z,54.548000
2022-10-22T06:25:32.001Z,54.068000
2022-10-22T06:30:34.119Z,53.516000
2022-10-22T06:35:17.856Z,53.696000
2022-10-22T06:40:19.115Z,54.980000
2022-10-22T06:45:21.657Z,54.824000
2022-10-22T06:50:24.861Z,54.242857
2022-10-22T06:55:26.882Z,53.960000
2022-10-22T07:00:29.841Z,53.648000
2022-10-22T07:05:33.326Z,53.420000
2022-10-22T07:10:34.192Z,53.420000
2022-10-22T07:15:16.373Z,53.744000
2022-10-22T07:20:19.944Z,54.020000
2022-10-22T07:25:22.312Z,54.255714
2022-10-22T07:30:24.737Z,54.176000
2022-10-22T07:35:28.312Z,54.404000
2022-10-22T07:40:29.804Z,55.628000
2022-10-22T07:45:33.422Z,56.180000
2022-10-22T07:50:36.948Z,56.660000
2022-10-22T07:55:17.821Z,57.284000
2022-10-22T08:00:23.099Z,58.160000
2022-10-22T08:05:22.093Z,58.556000
2022-10-22T08:10:24.965Z,58.151429
2022-10-22T08:15:27.330Z,57.332000
2022-10-22T08:20:30.048Z,57.188000
2022-10-22T08:25:32.249Z,56.948000
2022-10-22T08:30:16.116Z,56.828000
2022-10-22T08:35:17.841Z,56.924000
2022-10-22T08:40:21.411Z,56.900000
2022-10-22T08:45:23.196Z,57.701429
2022-10-22T08:50:25.575Z,58.292000
2022-10-22T08:55:28.204Z,58.376000
2022-10-22T09:00:30.535Z,58.580000
2022-10-22T09:05:32.540Z,58.232000
2022-10-22T09:10:36.107Z,58.592000
2022-10-22T09:15:17.172Z,59.240000
2022-10-22T09:20:19.430Z,59.672000
2022-10-22T09:25:22.190Z,59.861429
2022-10-22T09:30:24.488Z,60.152000
2022-10-22T09:35:28.348Z,60.392000
2022-10-22T09:40:31.798Z,60.560000
2022-10-22T09:45:34.201Z,60.572000
2022-10-22T09:50:16.338Z,60.344000
2022-10-22T09:55:19.609Z,60.032000
2022-10-22T10:00:21.293Z,58.052000
2022-10-22T10:05:24.791Z,58.202857
2022-10-22T10:10:27.156Z,57.956000
2022-10-22T10:15:28.913Z,57.812000
2022-10-22T10:20:31.414Z,57.752000
2022-10-22T10:25:33.817Z,58.328000
2022-10-22T10:30:35.998Z,58.808000
2022-10-22T10:35:18.069Z,58.928000
2022-10-22T10:40:20.771Z,58.556000
2022-10-22T10:45:23.109Z,58.022857
2022-10-22T10:50:25.743Z,57.740000
2022-10-22T10:55:29.564Z,57.776000
2022-10-22T11:00:31.471Z,58.232000
2022-10-22T11:05:33.885Z,57.668000
2022-10-22T11:10:16.062Z,57.824000
2022-10-22T11:15:18.379Z,58.292000
2022-10-22T11:20:20.708Z,58.748000
2022-10-22T11:25:23.019Z,58.717143
2022-10-22T11:30:25.769Z,58.364000
2022-10-22T11:35:28.722Z,58.160000
2022-10-22T11:40:30.752Z,57.824000
2022-10-22T11:45:32.903Z,58.832000
2022-10-22T11:50:35.828Z,60.248000
2022-10-22T11:55:17.738Z,60.212000
2022-10-22T12:00:20.446Z,60.044000
2022-10-22T12:05:23.033Z,60.208571
2022-10-22T12:10:25.440Z,60.080000
2022-10-22T12:15:27.438Z,59.840000
2022-10-22T12:20:29.848Z,60.560000
2022-10-22T12:25:35.601Z,60.356000
2022-10-22T12:30:36.345Z,59.144000
2022-10-22T12:35:17.713Z,58.820000
2022-10-22T12:40:20.225Z,58.736000
2022-10-22T12:45:23.773Z,58.858571
2022-10-22T12:50:25.230Z,60.128000
2022-10-22T12:55:29.631Z,59.876000
2022-10-22T13:00:37.684Z,58.140000
2022-10-22T13:05:19.879Z,59.312000
2022-10-22T13:10:21.517Z,59.900000
2022-10-22T13:15:23.970Z,60.542857
2022-10-22T13:20:26.949Z,59.876000
2022-10-22T13:25:29.332Z,60.668000
2022-10-22T13:30:32.583Z,62.372000
2022-10-22T13:35:33.869Z,62.804000
2022-10-22T13:40:15.941Z,64.136000
2022-10-22T13:45:18.584Z,63.656000
2022-10-22T13:50:20.926Z,63.416000
2022-10-22T13:55:23.635Z,63.127143
2022-10-22T14:00:26.913Z,62.528000
2022-10-22T14:05:29.008Z,61.904000
2022-10-22T14:10:31.626Z,61.784000
2022-10-22T14:15:34.300Z,61.172000
2022-10-22T14:20:16.458Z,61.088000
2022-10-22T14:25:19.961Z,60.812000
2022-10-22T14:30:22.077Z,60.404000
2022-10-22T14:35:27.140Z,59.385714
2022-10-22T14:40:27.940Z,58.760000
2022-10-22T14:45:31.036Z,58.904000
2022-10-22T14:50:33.744Z,58.724000
2022-10-22T14:55:35.115Z,58.736000
2022-10-22T15:00:18.961Z,58.412000
2022-10-22T15:05:20.973Z,57.824000
2022-10-22T15:10:24.127Z,58.190000
2022-10-22T15:15:31.639Z,58.136000
2022-10-22T15:20:29.990Z,58.232000
2022-10-22T15:25:32.921Z,57.812000
2022-10-22T15:30:35.522Z,57.656000
2022-10-22T15:35:20.131Z,57.572000
2022-10-22T15:40:20.836Z,57.236000
2022-10-22T15:45:24.279Z,57.200000
2022-10-22T15:50:25.719Z,57.248000
2022-10-22T15:55:29.243Z,57.236000
2022-10-22T16:00:32.321Z,57.020000
2022-10-22T16:05:34.753Z,56.888000
2022-10-22T16:10:17.042Z,56.732000
2022-10-22T16:15:19.753Z,56.840000
2022-10-22T16:20:22.956Z,56.840000
2022-10-22T16:25:25.167Z,56.708000
2022-10-22T16:30:28.319Z,56.324000
2022-10-22T16:35:30.567Z,55.904000
2022-10-22T16:40:32.816Z,55.676000
2022-10-22T16:45:35.425Z,55.604000
2022-10-22T16:50:18.362Z,55.424000
2022-10-22T16:55:22.664Z,55.328000
2022-10-22T17:00:24.195Z,54.602857
2022-10-22T17:05:26.841Z,53.984000
2022-10-22T17:10:30.855Z,53.972000
2022-10-22T17:15:32.073Z,54.404000
2022-10-22T17:20:34.409Z,54.032000
2022-10-22T17:25:16.554Z,53.624000
2022-10-22T17:30:23.260Z,53.420000
2022-10-22T17:35:21.799Z,53.300000
2022-10-22T17:40:24.461Z,53.240000
2022-10-22T17:45:26.729Z,53.432000
2022-10-22T17:50:28.774Z,53.600000
2022-10-22T17:55:31.115Z,53.876000
2022-10-22T18:00:33.720Z,54.056000
2022-10-22T18:05:37.104Z,54.440000
2022-10-22T18:10:18.020Z,54.752000
2022-10-22T18:15:20.516Z,55.076000
2022-10-22T18:20:22.658Z,55.541429
2022-10-22T18:25:25.141Z,55.928000
2022-10-22T18:30:27.396Z,56.192000
2022-10-22T18:35:29.709Z,56.324000
2022-10-22T18:40:32.129Z,56.528000
2022-10-22T18:45:34.469Z,56.672000
2022-10-22T18:50:16.593Z,56.840000
2022-10-22T18:55:19.069Z,56.948000
2022-10-22T19:00:21.162Z,57.044000
2022-10-22T19:05:23.984Z,57.200000
2022-10-22T19:10:26.304Z,57.200000
2022-10-22T19:15:34.534Z,57.356000
2022-10-22T19:20:31.025Z,57.512000
2022-10-22T19:25:33.430Z,57.692000
2022-10-22T19:30:36.677Z,57.764000
2022-10-22T19:35:18.100Z,57.932000
2022-10-22T19:40:20.620Z,58.088000
2022-10-22T19:45:23.390Z,57.920000
2022-10-22T19:50:27.322Z,57.824000
2022-10-22T19:55:28.618Z,57.632000
2022-10-22T20:00:31.200Z,57.680000
2022-10-22T20:05:34.135Z,57.776000
2022-10-22T20:10:18.923Z,57.752000
2022-10-22T20:15:19.224Z,57.764000
2022-10-22T20:20:26.291Z,57.920000
2022-10-22T20:25:24.553Z,57.071429
2022-10-22T20:30:27.574Z,54.500000
2022-10-22T20:35:29.629Z,52.784000
2022-10-22T20:40:32.244Z,48.020000
2022-10-22T20:45:35.224Z,45.284000
2022-10-22T20:50:17.446Z,43.496000
2022-10-22T20:55:19.960Z,42.884000
2022-10-22T21:00:22.432Z,42.748571
2022-10-22T21:05:26.159Z,42.416000
2022-10-22T21:10:32.398Z,42.260000
2022-10-22T21:15:31.566Z,42.332000
2022-10-22T21:20:34.017Z,41.984000
2022-10-22T21:25:16.654Z,41.636000
2022-10-22T21:30:19.381Z,40.616000
2022-10-22T21:35:23.313Z,40.074286
2022-10-22T21:40:26.439Z,39.656000
2022-10-22T21:45:27.951Z,39.536000
2022-10-22T21:50:31.500Z,38.864000
2022-10-22T21:55:33.122Z,38.756000
2022-10-22T22:00:16.541Z,38.480000
2022-10-22T22:05:19.961Z,38.240000
2022-10-22T22:10:22.901Z,38.012000
2022-10-22T22:15:24.192Z,38.120000
2022-10-22T22:20:26.932Z,38.180000
2022-10-22T22:25:29.083Z,38.300000
2022-10-22T22:30:32.351Z,38.336000
2022-10-22T22:35:34.871Z,38.396000
2022-10-22T22:40:17.934Z,38.480000
2022-10-22T22:45:21.656Z,38.396000
2022-10-22T22:50:23.852Z,38.390000
2022-10-22T22:55:28.890Z,38.312000
2022-10-22T23:00:30.866Z,38.480000
2022-10-22T23:05:32.863Z,38.360000
2022-10-22T23:10:36.135Z,38.624000
2022-10-22T23:15:17.480Z,38.768000
2022-10-22T23:20:22.108Z,38.660000
2022-10-22T23:25:23.282Z,38.660000
2022-10-22T23:30:26.641Z,38.744000
2022-10-22T23:35:28.311Z,38.888000
2022-10-22T23:40:30.749Z,38.960000
2022-10-22T23:45:33.477Z,39.116000
2022-10-22T23:50:16.770Z,39.296000
2022-10-22T23:55:20.033Z,39.320000
